sensor_id;sensor_type;location;lat;lon;timestamp;P1;durP1;ratioP1;P2;durP2;ratioP2
22314;SDS011;11325;55.686;37.566;2023-08-12T00:02:30;21.68;;;10.50;;
22314;SDS011;11325;55.686;37.566;2023-08-12T00:04:59;12.80;;;10.35;;
22314;SDS011;11325;55.686;37.566;2023-08-12T00:07:29;17.73;;;10.63;;
22314;SDS011;11325;55.686;37.566;2023-08-12T00:09:58;21.60;;;11.45;;
22314;SDS011;11325;55.686;37.566;2023-08-12T00:12:29;24.67;;;10.68;;
22314;SDS011;11325;55.686;37.566;2023-08-12T00:14:57;16.73;;;10.28;;
22314;SDS011;11325;55.686;37.566;2023-08-12T00:17:26;19.98;;;10.45;;
22314;SDS011;11325;55.686;37.566;2023-08-12T00:20:05;19.23;;;10.85;;
22314;SDS011;11325;55.686;37.566;2023-08-12T00:22:36;16.02;;;10.58;;
22314;SDS011;11325;55.686;37.566;2023-08-12T00:25:06;18.45;;;9.78;;
22314;SDS011;11325;55.686;37.566;2023-08-12T00:27:35;15.48;;;9.68;;
22314;SDS011;11325;55.686;37.566;2023-08-12T00:30:05;12.90;;;9.58;;
22314;SDS011;11325;55.686;37.566;2023-08-12T00:32:35;13.98;;;9.45;;
22314;SDS011;11325;55.686;37.566;2023-08-12T00:35:04;20.55;;;10.10;;
22314;SDS011;11325;55.686;37.566;2023-08-12T00:37:33;14.78;;;10.32;;
22314;SDS011;11325;55.686;37.566;2023-08-12T00:40:03;16.17;;;9.65;;
22314;SDS011;11325;55.686;37.566;2023-08-12T00:42:33;19.23;;;10.30;;
22314;SDS011;11325;55.686;37.566;2023-08-12T00:45:02;17.35;;;9.50;;
22314;SDS011;11325;55.686;37.566;2023-08-12T00:47:32;15.13;;;9.93;;
22314;SDS011;11325;55.686;37.566;2023-08-12T00:50:00;18.12;;;9.80;;
22314;SDS011;11325;55.686;37.566;2023-08-12T00:52:30;15.70;;;10.10;;
22314;SDS011;11325;55.686;37.566;2023-08-12T00:54:59;24.35;;;9.90;;
22314;SDS011;11325;55.686;37.566;2023-08-12T00:57:29;13.58;;;9.58;;
22314;SDS011;11325;55.686;37.566;2023-08-12T00:59:59;15.43;;;9.38;;
22314;SDS011;11325;55.686;37.566;2023-08-12T01:02:29;16.23;;;10.45;;
22314;SDS011;11325;55.686;37.566;2023-08-12T01:04:58;17.05;;;9.95;;
22314;SDS011;11325;55.686;37.566;2023-08-12T01:07:27;11.65;;;9.60;;
22314;SDS011;11325;55.686;37.566;2023-08-12T01:09:56;14.70;;;9.88;;
22314;SDS011;11325;55.686;37.566;2023-08-12T01:17:25;16.85;;;10.70;;
22314;SDS011;11325;55.686;37.566;2023-08-12T01:20:05;15.75;;;9.78;;
22314;SDS011;11325;55.686;37.566;2023-08-12T01:22:40;16.37;;;10.65;;
22314;SDS011;11325;55.686;37.566;2023-08-12T01:25:09;20.37;;;10.32;;
22314;SDS011;11325;55.686;37.566;2023-08-12T01:27:37;19.82;;;10.23;;
22314;SDS011;11325;55.686;37.566;2023-08-12T01:30:17;15.48;;;10.20;;
22314;SDS011;11325;55.686;37.566;2023-08-12T01:32:53;18.75;;;10.30;;
22314;SDS011;11325;55.686;37.566;2023-08-12T01:38:02;14.78;;;10.05;;
22314;SDS011;11325;55.686;37.566;2023-08-12T01:40:30;18.02;;;10.48;;
22314;SDS011;11325;55.686;37.566;2023-08-12T01:43:00;15.23;;;9.70;;
22314;SDS011;11325;55.686;37.566;2023-08-12T01:45:30;16.42;;;10.05;;
22314;SDS011;11325;55.686;37.566;2023-08-12T01:47:59;18.30;;;10.28;;
22314;SDS011;11325;55.686;37.566;2023-08-12T01:50:28;17.35;;;10.03;;
22314;SDS011;11325;55.686;37.566;2023-08-12T01:52:57;24.63;;;10.82;;
22314;SDS011;11325;55.686;37.566;2023-08-12T01:55:26;17.87;;;11.53;;
22314;SDS011;11325;55.686;37.566;2023-08-12T01:57:54;17.45;;;10.38;;
22314;SDS011;11325;55.686;37.566;2023-08-12T02:00:24;23.40;;;10.65;;
22314;SDS011;11325;55.686;37.566;2023-08-12T02:02:53;22.93;;;11.10;;
22314;SDS011;11325;55.686;37.566;2023-08-12T02:05:21;14.87;;;11.00;;
22314;SDS011;11325;55.686;37.566;2023-08-12T02:07:50;17.60;;;10.63;;
22314;SDS011;11325;55.686;37.566;2023-08-12T02:10:19;21.62;;;10.88;;
22314;SDS011;11325;55.686;37.566;2023-08-12T02:12:47;14.85;;;11.18;;
22314;SDS011;11325;55.686;37.566;2023-08-12T02:15:16;20.40;;;11.25;;
22314;SDS011;11325;55.686;37.566;2023-08-12T02:17:45;24.40;;;10.70;;
22314;SDS011;11325;55.686;37.566;2023-08-12T02:20:14;18.75;;;10.15;;
22314;SDS011;11325;55.686;37.566;2023-08-12T02:22:42;16.35;;;10.18;;
22314;SDS011;11325;55.686;37.566;2023-08-12T02:25:11;18.62;;;10.15;;
22314;SDS011;11325;55.686;37.566;2023-08-12T02:27:40;20.35;;;9.73;;
22314;SDS011;11325;55.686;37.566;2023-08-12T02:30:09;17.05;;;10.35;;
22314;SDS011;11325;55.686;37.566;2023-08-12T02:32:38;17.02;;;11.03;;
22314;SDS011;11325;55.686;37.566;2023-08-12T02:35:06;16.42;;;10.30;;
22314;SDS011;11325;55.686;37.566;2023-08-12T02:37:35;22.52;;;10.68;;
22314;SDS011;11325;55.686;37.566;2023-08-12T02:40:04;18.10;;;11.08;;
22314;SDS011;11325;55.686;37.566;2023-08-12T02:42:33;28.83;;;10.85;;
22314;SDS011;11325;55.686;37.566;2023-08-12T02:45:02;14.18;;;10.50;;
22314;SDS011;11325;55.686;37.566;2023-08-12T02:47:31;20.55;;;11.30;;
22314;SDS011;11325;55.686;37.566;2023-08-12T02:50:00;17.75;;;10.88;;
22314;SDS011;11325;55.686;37.566;2023-08-12T02:52:29;22.60;;;11.73;;
22314;SDS011;11325;55.686;37.566;2023-08-12T02:54:58;21.93;;;11.15;;
22314;SDS011;11325;55.686;37.566;2023-08-12T02:57:28;23.27;;;11.35;;
22314;SDS011;11325;55.686;37.566;2023-08-12T02:59:57;17.90;;;11.10;;
22314;SDS011;11325;55.686;37.566;2023-08-12T03:02:26;15.98;;;10.90;;
22314;SDS011;11325;55.686;37.566;2023-08-12T03:04:54;20.27;;;10.68;;
22314;SDS011;11325;55.686;37.566;2023-08-12T03:07:23;18.48;;;10.38;;
22314;SDS011;11325;55.686;37.566;2023-08-12T03:09:52;17.15;;;10.95;;
22314;SDS011;11325;55.686;37.566;2023-08-12T03:12:20;23.67;;;11.88;;
22314;SDS011;11325;55.686;37.566;2023-08-12T03:14:49;15.45;;;10.35;;
22314;SDS011;11325;55.686;37.566;2023-08-12T03:17:18;15.55;;;10.03;;
22314;SDS011;11325;55.686;37.566;2023-08-12T03:19:46;21.10;;;10.95;;
22314;SDS011;11325;55.686;37.566;2023-08-12T03:22:18;18.37;;;10.03;;
22314;SDS011;11325;55.686;37.566;2023-08-12T03:24:47;15.43;;;10.38;;
22314;SDS011;11325;55.686;37.566;2023-08-12T03:27:16;17.05;;;10.70;;
22314;SDS011;11325;55.686;37.566;2023-08-12T03:29:44;20.15;;;10.43;;
22314;SDS011;11325;55.686;37.566;2023-08-12T03:32:13;14.70;;;10.35;;
22314;SDS011;11325;55.686;37.566;2023-08-12T03:34:42;15.72;;;10.68;;
22314;SDS011;11325;55.686;37.566;2023-08-12T03:37:10;18.90;;;10.35;;
22314;SDS011;11325;55.686;37.566;2023-08-12T03:39:39;15.78;;;10.32;;
22314;SDS011;11325;55.686;37.566;2023-08-12T03:42:08;15.08;;;10.03;;
22314;SDS011;11325;55.686;37.566;2023-08-12T03:44:37;19.20;;;10.85;;
22314;SDS011;11325;55.686;37.566;2023-08-12T03:47:05;17.92;;;10.43;;
22314;SDS011;11325;55.686;37.566;2023-08-12T03:49:34;13.62;;;9.80;;
22314;SDS011;11325;55.686;37.566;2023-08-12T03:52:03;18.37;;;11.20;;
22314;SDS011;11325;55.686;37.566;2023-08-12T03:54:33;16.87;;;10.05;;
22314;SDS011;11325;55.686;37.566;2023-08-12T03:57:02;17.37;;;11.08;;
22314;SDS011;11325;55.686;37.566;2023-08-12T03:59:31;14.68;;;10.25;;
22314;SDS011;11325;55.686;37.566;2023-08-12T04:01:59;18.55;;;10.43;;
22314;SDS011;11325;55.686;37.566;2023-08-12T04:04:28;13.80;;;10.45;;
22314;SDS011;11325;55.686;37.566;2023-08-12T04:06:57;16.20;;;9.93;;
22314;SDS011;11325;55.686;37.566;2023-08-12T04:09:26;16.37;;;10.23;;
22314;SDS011;11325;55.686;37.566;2023-08-12T04:11:54;20.32;;;10.30;;
22314;SDS011;11325;55.686;37.566;2023-08-12T04:14:23;14.58;;;10.55;;
22314;SDS011;11325;55.686;37.566;2023-08-12T04:16:53;19.00;;;10.48;;
22314;SDS011;11325;55.686;37.566;2023-08-12T04:19:21;14.07;;;10.68;;
22314;SDS011;11325;55.686;37.566;2023-08-12T04:21:50;13.30;;;10.53;;
22314;SDS011;11325;55.686;37.566;2023-08-12T04:24:19;15.30;;;10.65;;
22314;SDS011;11325;55.686;37.566;2023-08-12T04:26:47;14.83;;;9.98;;
22314;SDS011;11325;55.686;37.566;2023-08-12T04:29:16;25.90;;;10.68;;
22314;SDS011;11325;55.686;37.566;2023-08-12T04:31:45;17.25;;;10.40;;
22314;SDS011;11325;55.686;37.566;2023-08-12T04:34:14;15.78;;;10.18;;
22314;SDS011;11325;55.686;37.566;2023-08-12T04:36:42;14.47;;;9.95;;
22314;SDS011;11325;55.686;37.566;2023-08-12T04:39:11;20.95;;;11.38;;
22314;SDS011;11325;55.686;37.566;2023-08-12T04:41:51;18.37;;;10.05;;
22314;SDS011;11325;55.686;37.566;2023-08-12T04:44:19;14.60;;;9.65;;
22314;SDS011;11325;55.686;37.566;2023-08-12T04:46:48;19.20;;;10.32;;
22314;SDS011;11325;55.686;37.566;2023-08-12T04:49:17;11.97;;;9.50;;
22314;SDS011;11325;55.686;37.566;2023-08-12T04:51:46;20.02;;;9.90;;
22314;SDS011;11325;55.686;37.566;2023-08-12T04:54:15;16.42;;;9.08;;
22314;SDS011;11325;55.686;37.566;2023-08-12T04:56:43;12.55;;;8.93;;
22314;SDS011;11325;55.686;37.566;2023-08-12T04:59:12;15.13;;;9.15;;
22314;SDS011;11325;55.686;37.566;2023-08-12T05:01:41;12.93;;;9.18;;
22314;SDS011;11325;55.686;37.566;2023-08-12T05:04:10;12.20;;;9.25;;
22314;SDS011;11325;55.686;37.566;2023-08-12T05:06:39;12.90;;;9.00;;
22314;SDS011;11325;55.686;37.566;2023-08-12T05:09:08;18.30;;;9.35;;
22314;SDS011;11325;55.686;37.566;2023-08-12T05:11:36;13.35;;;9.73;;
22314;SDS011;11325;55.686;37.566;2023-08-12T05:14:05;12.90;;;9.33;;
22314;SDS011;11325;55.686;37.566;2023-08-12T05:16:34;17.02;;;9.05;;
22314;SDS011;11325;55.686;37.566;2023-08-12T05:19:03;14.10;;;9.15;;
22314;SDS011;11325;55.686;37.566;2023-08-12T05:21:31;15.68;;;10.08;;
22314;SDS011;11325;55.686;37.566;2023-08-12T05:24:00;11.60;;;8.95;;
22314;SDS011;11325;55.686;37.566;2023-08-12T05:26:29;15.03;;;9.80;;
22314;SDS011;11325;55.686;37.566;2023-08-12T05:28:57;13.35;;;9.20;;
22314;SDS011;11325;55.686;37.566;2023-08-12T05:31:26;13.32;;;9.78;;
22314;SDS011;11325;55.686;37.566;2023-08-12T05:33:55;18.07;;;9.48;;
22314;SDS011;11325;55.686;37.566;2023-08-12T05:36:23;13.22;;;9.70;;
22314;SDS011;11325;55.686;37.566;2023-08-12T05:38:52;13.60;;;9.55;;
22314;SDS011;11325;55.686;37.566;2023-08-12T05:41:21;17.50;;;9.33;;
22314;SDS011;11325;55.686;37.566;2023-08-12T05:43:50;16.27;;;9.25;;
22314;SDS011;11325;55.686;37.566;2023-08-12T05:46:18;16.77;;;8.98;;
22314;SDS011;11325;55.686;37.566;2023-08-12T05:48:47;17.02;;;9.55;;
22314;SDS011;11325;55.686;37.566;2023-08-12T05:51:16;11.70;;;9.95;;
22314;SDS011;11325;55.686;37.566;2023-08-12T05:53:44;18.27;;;9.23;;
22314;SDS011;11325;55.686;37.566;2023-08-12T05:56:13;14.03;;;9.00;;
22314;SDS011;11325;55.686;37.566;2023-08-12T05:58:42;13.88;;;9.45;;
22314;SDS011;11325;55.686;37.566;2023-08-12T06:01:10;14.25;;;9.68;;
22314;SDS011;11325;55.686;37.566;2023-08-12T06:03:48;18.62;;;10.10;;
22314;SDS011;11325;55.686;37.566;2023-08-12T06:06:17;21.65;;;9.95;;
22314;SDS011;11325;55.686;37.566;2023-08-12T06:08:46;15.28;;;9.73;;
22314;SDS011;11325;55.686;37.566;2023-08-12T06:11:14;18.50;;;9.85;;
22314;SDS011;11325;55.686;37.566;2023-08-12T06:13:43;22.00;;;9.85;;
22314;SDS011;11325;55.686;37.566;2023-08-12T06:16:12;12.50;;;9.13;;
22314;SDS011;11325;55.686;37.566;2023-08-12T06:18:41;23.07;;;9.83;;
22314;SDS011;11325;55.686;37.566;2023-08-12T06:21:09;23.27;;;9.38;;
22314;SDS011;11325;55.686;37.566;2023-08-12T06:23:38;19.40;;;9.93;;
22314;SDS011;11325;55.686;37.566;2023-08-12T06:26:07;21.87;;;9.70;;
22314;SDS011;11325;55.686;37.566;2023-08-12T06:28:35;20.35;;;9.28;;
22314;SDS011;11325;55.686;37.566;2023-08-12T06:31:04;13.03;;;8.40;;
22314;SDS011;11325;55.686;37.566;2023-08-12T06:33:33;13.53;;;8.90;;
22314;SDS011;11325;55.686;37.566;2023-08-12T06:36:02;20.27;;;10.30;;
22314;SDS011;11325;55.686;37.566;2023-08-12T06:38:31;14.80;;;8.95;;
22314;SDS011;11325;55.686;37.566;2023-08-12T06:41:00;18.02;;;9.13;;
22314;SDS011;11325;55.686;37.566;2023-08-12T06:43:28;13.40;;;8.98;;
22314;SDS011;11325;55.686;37.566;2023-08-12T06:45:57;18.60;;;9.18;;
22314;SDS011;11325;55.686;37.566;2023-08-12T06:48:26;19.85;;;8.48;;
22314;SDS011;11325;55.686;37.566;2023-08-12T06:51:05;12.82;;;8.90;;
22314;SDS011;11325;55.686;37.566;2023-08-12T06:53:35;22.52;;;9.40;;
22314;SDS011;11325;55.686;37.566;2023-08-12T06:56:15;14.50;;;8.88;;
22314;SDS011;11325;55.686;37.566;2023-08-12T06:58:43;20.57;;;8.53;;
22314;SDS011;11325;55.686;37.566;2023-08-12T07:01:12;10.25;;;7.92;;
22314;SDS011;11325;55.686;37.566;2023-08-12T07:03:51;16.20;;;8.93;;
22314;SDS011;11325;55.686;37.566;2023-08-12T07:06:30;15.93;;;9.00;;
22314;SDS011;11325;55.686;37.566;2023-08-12T07:09:09;13.53;;;8.75;;
22314;SDS011;11325;55.686;37.566;2023-08-12T07:11:38;14.53;;;8.50;;
22314;SDS011;11325;55.686;37.566;2023-08-12T07:14:16;17.15;;;9.20;;
22314;SDS011;11325;55.686;37.566;2023-08-12T07:16:55;12.78;;;8.93;;
22314;SDS011;11325;55.686;37.566;2023-08-12T07:19:34;16.27;;;8.88;;
22314;SDS011;11325;55.686;37.566;2023-08-12T07:22:02;14.07;;;9.28;;
22314;SDS011;11325;55.686;37.566;2023-08-12T07:24:31;20.27;;;8.83;;
22314;SDS011;11325;55.686;37.566;2023-08-12T07:27:00;15.63;;;8.15;;
22314;SDS011;11325;55.686;37.566;2023-08-12T07:29:28;18.92;;;8.98;;
22314;SDS011;11325;55.686;37.566;2023-08-12T07:31:57;14.35;;;9.08;;
22314;SDS011;11325;55.686;37.566;2023-08-12T07:34:36;13.80;;;9.00;;
22314;SDS011;11325;55.686;37.566;2023-08-12T07:37:16;18.30;;;8.70;;
22314;SDS011;11325;55.686;37.566;2023-08-12T07:39:44;19.17;;;8.83;;
22314;SDS011;11325;55.686;37.566;2023-08-12T07:42:23;17.70;;;9.10;;
22314;SDS011;11325;55.686;37.566;2023-08-12T07:44:52;12.43;;;8.55;;
22314;SDS011;11325;55.686;37.566;2023-08-12T07:47:20;17.32;;;9.38;;
22314;SDS011;11325;55.686;37.566;2023-08-12T07:49:49;17.85;;;9.75;;
22314;SDS011;11325;55.686;37.566;2023-08-12T07:52:17;13.53;;;8.83;;
22314;SDS011;11325;55.686;37.566;2023-08-12T07:54:46;18.57;;;9.03;;
22314;SDS011;11325;55.686;37.566;2023-08-12T07:57:14;20.37;;;9.48;;
22314;SDS011;11325;55.686;37.566;2023-08-12T07:59:54;13.85;;;8.60;;
22314;SDS011;11325;55.686;37.566;2023-08-12T08:02:33;17.23;;;9.30;;
22314;SDS011;11325;55.686;37.566;2023-08-12T08:05:01;17.87;;;8.78;;
22314;SDS011;11325;55.686;37.566;2023-08-12T08:07:40;13.08;;;8.75;;
22314;SDS011;11325;55.686;37.566;2023-08-12T08:10:09;18.60;;;9.18;;
22314;SDS011;11325;55.686;37.566;2023-08-12T08:12:38;13.70;;;9.30;;
22314;SDS011;11325;55.686;37.566;2023-08-12T08:15:17;18.02;;;9.83;;
22314;SDS011;11325;55.686;37.566;2023-08-12T08:17:56;11.63;;;9.25;;
22314;SDS011;11325;55.686;37.566;2023-08-12T08:20:35;18.48;;;10.63;;
22314;SDS011;11325;55.686;37.566;2023-08-12T08:23:03;18.62;;;9.90;;
22314;SDS011;11325;55.686;37.566;2023-08-12T08:25:42;22.65;;;10.55;;
22314;SDS011;11325;55.686;37.566;2023-08-12T08:28:10;27.10;;;10.70;;
22314;SDS011;11325;55.686;37.566;2023-08-12T08:30:49;21.15;;;11.45;;
22314;SDS011;11325;55.686;37.566;2023-08-12T08:33:17;18.37;;;11.63;;
22314;SDS011;11325;55.686;37.566;2023-08-12T08:35:56;22.70;;;12.25;;
22314;SDS011;11325;55.686;37.566;2023-08-12T08:38:25;23.32;;;11.93;;
22314;SDS011;11325;55.686;37.566;2023-08-12T08:40:53;24.65;;;12.58;;
22314;SDS011;11325;55.686;37.566;2023-08-12T08:43:22;21.37;;;11.60;;
22314;SDS011;11325;55.686;37.566;2023-08-12T08:46:02;16.12;;;10.85;;
22314;SDS011;11325;55.686;37.566;2023-08-12T08:48:30;18.95;;;10.43;;
22314;SDS011;11325;55.686;37.566;2023-08-12T08:51:00;15.30;;;10.95;;
22314;SDS011;11325;55.686;37.566;2023-08-12T08:53:39;23.25;;;10.90;;
22314;SDS011;11325;55.686;37.566;2023-08-12T08:56:18;19.02;;;11.50;;
22314;SDS011;11325;55.686;37.566;2023-08-12T08:58:57;15.70;;;10.48;;
22314;SDS011;11325;55.686;37.566;2023-08-12T09:01:26;19.20;;;10.55;;
22314;SDS011;11325;55.686;37.566;2023-08-12T09:03:55;21.30;;;10.43;;
22314;SDS011;11325;55.686;37.566;2023-08-12T09:06:34;18.50;;;10.55;;
22314;SDS011;11325;55.686;37.566;2023-08-12T09:09:04;15.88;;;10.15;;
22314;SDS011;11325;55.686;37.566;2023-08-12T09:11:34;19.10;;;10.28;;
22314;SDS011;11325;55.686;37.566;2023-08-12T09:14:02;20.90;;;10.85;;
22314;SDS011;11325;55.686;37.566;2023-08-12T09:16:31;19.75;;;10.35;;
22314;SDS011;11325;55.686;37.566;2023-08-12T09:19:00;21.30;;;10.23;;
22314;SDS011;11325;55.686;37.566;2023-08-12T09:21:39;17.85;;;11.65;;
22314;SDS011;11325;55.686;37.566;2023-08-12T09:24:25;14.23;;;10.10;;
22314;SDS011;11325;55.686;37.566;2023-08-12T09:26:54;16.40;;;10.60;;
22314;SDS011;11325;55.686;37.566;2023-08-12T09:29:35;20.32;;;11.65;;
22314;SDS011;11325;55.686;37.566;2023-08-12T09:32:10;25.57;;;12.15;;
22314;SDS011;11325;55.686;37.566;2023-08-12T09:34:46;17.00;;;11.28;;
22314;SDS011;11325;55.686;37.566;2023-08-12T09:37:15;19.32;;;10.48;;
22314;SDS011;11325;55.686;37.566;2023-08-12T09:39:46;16.77;;;10.72;;
22314;SDS011;11325;55.686;37.566;2023-08-12T09:42:15;16.48;;;10.70;;
22314;SDS011;11325;55.686;37.566;2023-08-12T09:44:56;16.15;;;10.15;;
22314;SDS011;11325;55.686;37.566;2023-08-12T09:47:25;18.57;;;11.05;;
22314;SDS011;11325;55.686;37.566;2023-08-12T09:50:04;19.02;;;10.82;;
22314;SDS011;11325;55.686;37.566;2023-08-12T09:52:33;20.15;;;11.43;;
22314;SDS011;11325;55.686;37.566;2023-08-12T09:55:12;16.00;;;11.05;;
22314;SDS011;11325;55.686;37.566;2023-08-12T09:57:52;17.52;;;11.30;;
22314;SDS011;11325;55.686;37.566;2023-08-12T10:00:22;17.35;;;10.88;;
22314;SDS011;11325;55.686;37.566;2023-08-12T10:03:01;17.40;;;10.70;;
22314;SDS011;11325;55.686;37.566;2023-08-12T10:05:31;22.75;;;11.22;;
22314;SDS011;11325;55.686;37.566;2023-08-12T10:08:11;16.27;;;10.35;;
22314;SDS011;11325;55.686;37.566;2023-08-12T10:10:50;16.57;;;10.72;;
22314;SDS011;11325;55.686;37.566;2023-08-12T10:13:30;21.27;;;9.70;;
22314;SDS011;11325;55.686;37.566;2023-08-12T10:16:09;16.55;;;10.65;;
22314;SDS011;11325;55.686;37.566;2023-08-12T10:18:40;18.17;;;10.80;;
22314;SDS011;11325;55.686;37.566;2023-08-12T10:21:09;16.67;;;11.20;;
22314;SDS011;11325;55.686;37.566;2023-08-12T10:23:40;16.82;;;10.55;;
22314;SDS011;11325;55.686;37.566;2023-08-12T10:26:09;18.87;;;10.72;;
22314;SDS011;11325;55.686;37.566;2023-08-12T10:28:38;15.00;;;11.03;;
22314;SDS011;11325;55.686;37.566;2023-08-12T10:31:18;19.35;;;10.85;;
22314;SDS011;11325;55.686;37.566;2023-08-12T10:33:47;15.53;;;9.90;;
22314;SDS011;11325;55.686;37.566;2023-08-12T10:36:21;20.75;;;10.90;;
22314;SDS011;11325;55.686;37.566;2023-08-12T10:38:49;20.02;;;11.35;;
22314;SDS011;11325;55.686;37.566;2023-08-12T10:41:28;20.08;;;11.53;;
22314;SDS011;11325;55.686;37.566;2023-08-12T10:44:08;25.72;;;11.15;;
22314;SDS011;11325;55.686;37.566;2023-08-12T10:46:37;17.40;;;10.53;;
22314;SDS011;11325;55.686;37.566;2023-08-12T10:49:10;19.52;;;10.78;;
22314;SDS011;11325;55.686;37.566;2023-08-12T10:51:48;18.02;;;10.88;;
22314;SDS011;11325;55.686;37.566;2023-08-12T10:54:19;20.40;;;11.57;;
22314;SDS011;11325;55.686;37.566;2023-08-12T11:05:07;16.35;;;10.15;;
22314;SDS011;11325;55.686;37.566;2023-08-12T11:07:43;15.10;;;10.38;;
22314;SDS011;11325;55.686;37.566;2023-08-12T11:10:19;16.07;;;11.20;;
22314;SDS011;11325;55.686;37.566;2023-08-12T11:12:59;18.35;;;13.20;;
22314;SDS011;11325;55.686;37.566;2023-08-12T11:15:47;16.55;;;12.03;;
22314;SDS011;11325;55.686;37.566;2023-08-12T11:18:27;16.65;;;11.73;;
22314;SDS011;11325;55.686;37.566;2023-08-12T11:20:58;15.72;;;11.08;;
22314;SDS011;11325;55.686;37.566;2023-08-12T11:23:26;19.87;;;11.80;;
22314;SDS011;11325;55.686;37.566;2023-08-12T11:26:06;18.32;;;11.48;;
22314;SDS011;11325;55.686;37.566;2023-08-12T11:28:37;20.17;;;12.30;;
22314;SDS011;11325;55.686;37.566;2023-08-12T11:31:06;18.92;;;11.75;;
22314;SDS011;11325;55.686;37.566;2023-08-12T11:33:34;18.10;;;12.03;;
22314;SDS011;11325;55.686;37.566;2023-08-12T11:36:03;18.62;;;10.68;;
22314;SDS011;11325;55.686;37.566;2023-08-12T11:38:33;22.67;;;10.78;;
22314;SDS011;11325;55.686;37.566;2023-08-12T11:41:01;21.60;;;11.53;;
22314;SDS011;11325;55.686;37.566;2023-08-12T11:43:43;18.37;;;10.95;;
22314;SDS011;11325;55.686;37.566;2023-08-12T11:46:15;18.77;;;11.80;;
22314;SDS011;11325;55.686;37.566;2023-08-12T11:48:52;19.45;;;10.50;;
22314;SDS011;11325;55.686;37.566;2023-08-12T11:51:32;18.77;;;11.53;;
22314;SDS011;11325;55.686;37.566;2023-08-12T11:54:11;22.77;;;12.95;;
22314;SDS011;11325;55.686;37.566;2023-08-12T11:56:39;17.50;;;11.70;;
22314;SDS011;11325;55.686;37.566;2023-08-12T11:59:20;33.05;;;15.05;;
22314;SDS011;11325;55.686;37.566;2023-08-12T12:01:48;21.10;;;12.58;;
22314;SDS011;11325;55.686;37.566;2023-08-12T12:04:17;24.07;;;14.25;;
22314;SDS011;11325;55.686;37.566;2023-08-12T12:06:58;19.52;;;11.28;;
22314;SDS011;11325;55.686;37.566;2023-08-12T12:09:28;24.43;;;13.75;;
22314;SDS011;11325;55.686;37.566;2023-08-12T12:11:57;26.52;;;17.55;;
22314;SDS011;11325;55.686;37.566;2023-08-12T12:14:25;20.35;;;13.20;;
22314;SDS011;11325;55.686;37.566;2023-08-12T12:16:54;23.90;;;11.97;;
22314;SDS011;11325;55.686;37.566;2023-08-12T12:19:23;23.18;;;12.43;;
22314;SDS011;11325;55.686;37.566;2023-08-12T12:21:52;21.40;;;12.98;;
22314;SDS011;11325;55.686;37.566;2023-08-12T12:24:20;20.05;;;12.43;;
22314;SDS011;11325;55.686;37.566;2023-08-12T12:26:49;18.75;;;11.48;;
22314;SDS011;11325;55.686;37.566;2023-08-12T12:29:18;27.73;;;12.47;;
22314;SDS011;11325;55.686;37.566;2023-08-12T12:31:56;15.93;;;11.50;;
22314;SDS011;11325;55.686;37.566;2023-08-12T12:34:24;22.22;;;12.07;;
22314;SDS011;11325;55.686;37.566;2023-08-12T12:36:53;20.30;;;11.50;;
22314;SDS011;11325;55.686;37.566;2023-08-12T12:39:32;16.57;;;10.82;;
22314;SDS011;11325;55.686;37.566;2023-08-12T12:42:01;17.10;;;11.08;;
22314;SDS011;11325;55.686;37.566;2023-08-12T12:44:39;16.62;;;10.70;;
22314;SDS011;11325;55.686;37.566;2023-08-12T12:47:07;14.80;;;10.30;;
22314;SDS011;11325;55.686;37.566;2023-08-12T12:49:49;24.43;;;11.28;;
22314;SDS011;11325;55.686;37.566;2023-08-12T12:52:28;13.70;;;10.10;;
22314;SDS011;11325;55.686;37.566;2023-08-12T12:54:57;18.30;;;10.78;;
22314;SDS011;11325;55.686;37.566;2023-08-12T12:57:36;21.75;;;9.78;;
22314;SDS011;11325;55.686;37.566;2023-08-12T13:00:14;16.25;;;10.00;;
22314;SDS011;11325;55.686;37.566;2023-08-12T13:02:43;18.80;;;9.18;;
22314;SDS011;11325;55.686;37.566;2023-08-12T13:05:22;12.73;;;9.40;;
22314;SDS011;11325;55.686;37.566;2023-08-12T13:07:51;19.37;;;9.90;;
22314;SDS011;11325;55.686;37.566;2023-08-12T13:10:19;18.77;;;9.63;;
22314;SDS011;11325;55.686;37.566;2023-08-12T13:12:48;20.27;;;10.72;;
22314;SDS011;11325;55.686;37.566;2023-08-12T13:15:16;15.28;;;9.78;;
22314;SDS011;11325;55.686;37.566;2023-08-12T13:17:45;15.05;;;10.35;;
22314;SDS011;11325;55.686;37.566;2023-08-12T13:20:23;16.17;;;9.78;;
22314;SDS011;11325;55.686;37.566;2023-08-12T13:23:02;11.78;;;9.40;;
22314;SDS011;11325;55.686;37.566;2023-08-12T13:25:32;15.85;;;9.15;;
22314;SDS011;11325;55.686;37.566;2023-08-12T13:28:01;11.90;;;9.08;;
22314;SDS011;11325;55.686;37.566;2023-08-12T13:30:30;18.10;;;9.18;;
22314;SDS011;11325;55.686;37.566;2023-08-12T13:32:59;14.35;;;9.05;;
22314;SDS011;11325;55.686;37.566;2023-08-12T13:35:27;17.32;;;9.30;;
22314;SDS011;11325;55.686;37.566;2023-08-12T13:37:56;12.75;;;9.20;;
22314;SDS011;11325;55.686;37.566;2023-08-12T13:40:25;14.60;;;9.58;;
22314;SDS011;11325;55.686;37.566;2023-08-12T13:43:04;17.73;;;10.50;;
22314;SDS011;11325;55.686;37.566;2023-08-12T13:45:33;18.37;;;10.45;;
22314;SDS011;11325;55.686;37.566;2023-08-12T13:48:02;17.55;;;9.53;;
22314;SDS011;11325;55.686;37.566;2023-08-12T13:50:30;15.48;;;9.95;;
22314;SDS011;11325;55.686;37.566;2023-08-12T13:53:00;17.48;;;10.38;;
22314;SDS011;11325;55.686;37.566;2023-08-12T13:55:29;19.37;;;10.53;;
22314;SDS011;11325;55.686;37.566;2023-08-12T13:57:57;24.32;;;9.85;;
22314;SDS011;11325;55.686;37.566;2023-08-12T14:00:26;16.05;;;10.65;;
22314;SDS011;11325;55.686;37.566;2023-08-12T14:03:06;15.53;;;10.30;;
22314;SDS011;11325;55.686;37.566;2023-08-12T14:05:36;13.75;;;10.68;;
22314;SDS011;11325;55.686;37.566;2023-08-12T14:08:04;18.82;;;11.73;;
22314;SDS011;11325;55.686;37.566;2023-08-12T14:10:44;19.73;;;11.10;;
22314;SDS011;11325;55.686;37.566;2023-08-12T14:13:23;19.90;;;11.18;;
22314;SDS011;11325;55.686;37.566;2023-08-12T14:16:02;16.67;;;10.75;;
22314;SDS011;11325;55.686;37.566;2023-08-12T14:18:41;18.40;;;11.22;;
22314;SDS011;11325;55.686;37.566;2023-08-12T14:21:09;18.00;;;11.70;;
22314;SDS011;11325;55.686;37.566;2023-08-12T14:23:37;20.85;;;11.28;;
22314;SDS011;11325;55.686;37.566;2023-08-12T14:26:05;18.02;;;11.55;;
22314;SDS011;11325;55.686;37.566;2023-08-12T14:28:33;19.73;;;12.75;;
22314;SDS011;11325;55.686;37.566;2023-08-12T14:31:01;19.35;;;11.73;;
22314;SDS011;11325;55.686;37.566;2023-08-12T14:33:30;22.15;;;12.40;;
22314;SDS011;11325;55.686;37.566;2023-08-12T14:35:58;17.82;;;10.82;;
22314;SDS011;11325;55.686;37.566;2023-08-12T14:38:26;25.55;;;11.68;;
22314;SDS011;11325;55.686;37.566;2023-08-12T14:40:54;19.50;;;11.33;;
22314;SDS011;11325;55.686;37.566;2023-08-12T14:43:22;23.83;;;11.35;;
22314;SDS011;11325;55.686;37.566;2023-08-12T14:45:50;18.25;;;11.40;;
22314;SDS011;11325;55.686;37.566;2023-08-12T14:48:18;20.10;;;10.80;;
22314;SDS011;11325;55.686;37.566;2023-08-12T14:50:46;18.52;;;10.32;;
22314;SDS011;11325;55.686;37.566;2023-08-12T14:53:14;13.80;;;10.20;;